Valley Peak, Santa Cruz Island Reserve, California Weather observations

Data are for 10 minute period ending at time listed.
 Day   Time   Solar   Ave.   Ave.  Ave.  Vector  Max.   Baro.   Total    
  of    of     Rad.   Air    Rel.  Wind   Wind   Wind  Press.  Precip.   
Year   Day            Temp.  Hum.  Speed  Dir.   Gust                    
2017   (PST)  Kw/m2    F      %     mph   deg.    mph    mb.     in.     
-------------------------------------------------------------------------
 116    5:00   0.00   58.5    54   15.6     2    24.8   962.5    0.00 
 116    5:10   0.00   58.7    53   17.0   360    25.7   962.5    0.00 
 116    5:20   0.00   59.1    52   16.1     5    25.6   962.4    0.00 
 116    5:30   0.01   59.7    50   16.0     6    22.7   962.5    0.00 
 116    5:40   0.01   60.2    49   13.5     5    19.6   962.8    0.00 
 116    5:50   0.03   60.6    49   10.0     8    16.4   963.0    0.00 
 116    6:00   0.06   60.3    50   10.4   354    15.2   963.0    0.00 
 116    6:10   0.09   60.2    52    9.4     8    12.9   963.1    0.00 
 116    6:20   0.14   59.9    54    9.1    17    11.8   963.2    0.00 
 116    6:30   0.18   60.3    53   13.0    14    21.9   963.3    0.00 
 116    6:40   0.20   60.6    55   11.0    19    15.6   963.6    0.00 
 116    6:50   0.26   60.7    55   10.1    32    14.6   963.7    0.00 
 116    7:00   0.31   61.7    54    9.1    30    13.2   963.7    0.00 
 116    7:10   0.33   62.5    53   11.8    34    15.9   963.7    0.00 
 116    7:20   0.34   63.1    51   12.5    36    18.5   963.7    0.00 
 116    7:30   0.38   63.8    50   10.7    33    17.8   963.8    0.00 
 116    7:40   0.42   64.0    48   12.5    28    19.0   963.9    0.00 
 116    7:50   0.46   65.1    49   12.3    40    18.7   963.9    0.00 
 116    8:00   0.48   66.5    48    9.6    45    16.0   963.8    0.00 
 116    8:10   0.51   67.3    46    7.7    38    14.9   963.8    0.00 
 116    8:20   0.55   67.3    46    5.6    29    11.9   963.8    0.00 
 116    8:30   0.56   69.4    44    4.4    41     9.0   963.8    0.00 
 116    8:40   0.57   69.4    45    6.8    42     9.8   963.9    0.00 
 116    8:50   0.52   67.5    48    8.1    33    11.9   964.1    0.00 
 116    9:00   0.60   68.0    47    4.7    17    10.8   964.2    0.00 
 116    9:10   0.67   68.6    44   11.6     3    22.1   964.2    0.00 
 116    9:20   0.67   67.7    45   12.3    26    22.1   964.0    0.00 
 116    9:30   0.70   67.6    45   11.2   357    24.2   964.0    0.00 
 116    9:40   0.76   69.3    42   12.3   327    23.9   964.1    0.00 
 116    9:50   0.78   68.8    43   14.6   331    29.5   964.1    0.00 
 116   10:00   0.76   69.5    43   13.0   337    22.8   964.0    0.00 
 116   10:10   0.78   70.0    42   15.8   330    28.2   964.0    0.00 
 116   10:20   0.83   70.6    42   16.3   351    29.7   963.9    0.00 
 116   10:30   0.85   71.3    42   15.9   349    25.4   963.8    0.00 
 116   10:40   0.87   72.3    41   13.2   354    23.2   963.8    0.00 
 116   10:50   0.88   72.4    41   15.6   338    28.8   963.9    0.00 
 116   11:00   0.88   73.1    40   15.2   340    29.7   963.8    0.00 
 116   11:10   0.89   73.3    41   15.3   332    28.1   963.8    0.00 
 116   11:20   0.88   73.5    41   16.2   321    28.4   963.6    0.00 
 116   11:30   0.91   74.9    40   12.6   328    20.9   963.5    0.00 
 116   11:40   0.91   75.5    40   12.9   335    21.7   963.4    0.00 
 116   11:50   0.82   75.9    40   12.9   327    23.2   963.4    0.00 
 116   12:00   0.85   75.7    40   14.4   325    26.6   963.4    0.00 
 116   12:10   0.94   75.3    41   17.1   326    30.5   963.4    0.00 
 116   12:20   0.94   74.7    43   20.2   322    31.4   963.4    0.00 
 116   12:30   0.88   75.2    43   17.5   325    28.7   963.3    0.00 
 116   12:40   0.61   74.2    44   20.0   327    30.8   963.2    0.00 
 116   12:50   0.84   73.3    46   20.4   327    35.4   963.1    0.00 
 116   13:00   0.90   74.7    44   20.2   328    31.9   962.9    0.00 
 116   13:10   0.77   74.7    45   19.9   331    32.7   962.8    0.00 
 116   13:20   0.29   73.0    47   18.2   326    30.3   962.8    0.00 
 116   13:30   0.29   71.9    49   21.5   325    34.4   962.7    0.00 
 116   13:40   0.53   72.4    48   22.2   324    34.7   962.5    0.00 
 116   13:50   0.46   73.3    48   23.1   322    35.1   962.4    0.00 
 116   14:00   0.36   72.8    48   23.3   321    38.6   962.3    0.00 
 116   14:10   0.37   72.8    49   24.7   316    38.8   962.2    0.00 
 116   14:20   0.29   72.8    49   22.6   315    34.4   962.1    0.00 
 116   14:30   0.40   72.7    50   21.4   315    33.2   962.2    0.00 
 116   14:40   0.61   73.7    49   20.8   314    30.8   962.1    0.00 
 116   14:50   0.65   73.7    50   21.0   314    35.9   962.1    0.00 
 116   15:00   0.72   74.2    49   17.4   319    33.9   962.2    0.00 
 116   15:10   0.74   75.1    49   15.1   321    26.5   962.2    0.00 
 116   15:20   0.67   74.4    50   20.5   325    34.5   962.2    0.00 
 116   15:30   0.58   73.7    51   20.3   326    35.5   962.1    0.00 
 116   15:40   0.53   73.2    52   21.2   326    35.0   962.0    0.00 
 116   15:50   0.34   72.4    53   23.0   325    40.4   961.6    0.00 
 116   16:00   0.21   71.4    55   24.4   322    38.5   961.4    0.00 
 116   16:10   0.28   71.2    55   25.8   321    41.9   961.2    0.00 
 116   16:20   0.47   72.2    54   29.1   319    44.3   961.1    0.00 
 116   16:30   0.40   72.3    54   27.0   323    44.7   961.0    0.00 
 116   16:40   0.34   72.2    54   29.7   322    44.5   960.9    0.00 
 116   16:50   0.33   72.1    54   28.5   323    42.5   960.8    0.00 
 116   17:00   0.28   71.5    55   30.2   321    48.4   960.8    0.00 
 116   17:10   0.24   71.3    56   28.9   324    41.4   960.8    0.00 
 116   17:20   0.21   70.5    57   30.1   322    43.5   960.8    0.00 
 116   17:30   0.18   70.3    57   32.6   322    49.0   960.7    0.00 
 116   17:40   0.14   69.9    58   30.6   323    46.9   960.7    0.00 
 116   17:50   0.12   69.5    59   30.0   322    46.4   960.7    0.00 
 116   18:00   0.09   69.3    59   30.9   319    45.5   960.7    0.00 
 116   18:10   0.06   69.4    59   28.1   320    43.7   960.6    0.00 
 116   18:20   0.03   69.2    59   27.4   320    42.4   960.6    0.00 
 116   18:30   0.01   69.0    60   28.9   316    43.0   960.6    0.00 
 116   18:40   0.00   68.6    61   28.7   320    46.5   960.7    0.00 
 116   18:50   0.00   68.6    61   27.9   323    42.1   960.7    0.00 
 116   19:00   0.00   68.1    62   29.9   320    45.0   960.7    0.00 
 116   19:10   0.00   67.7    62   28.3   323    41.7   960.8    0.00 
 116   19:20   0.00   67.7    62   26.3   326    42.5   960.8    0.00 
 116   19:30   0.00   68.0    62   24.1   334    37.8   961.0    0.00 
 116   19:40   0.00   67.8    62   24.9   332    42.8   961.1    0.00 
 116   19:50   0.00   67.4    62   23.9   331    38.0   961.2    0.00 
 116   20:00   0.00   66.9    63   22.0   331    34.4   961.2    0.00 
 116   20:10   0.00   66.9    63   22.9   336    37.5   961.2    0.00 
 116   20:20   0.00   66.7    64   24.0   330    38.8   961.3    0.00 
 116   20:30   0.00   66.0    65   26.5   322    42.8   961.3    0.00 
 116   20:40   0.00   66.1    64   22.8   328    38.8   961.4    0.00 
 116   20:50   0.00   66.0    64   24.9   323    40.0   961.3    0.00 
 116   21:00   0.00   66.1    64   23.7   324    40.2   961.5    0.00 
 116   21:10   0.00   66.0    64   25.7   322    40.8   961.5    0.00 
 116   21:20   0.00   66.3    63   23.0   327    36.3   961.4    0.00 
 116   21:30   0.00   66.5    63   20.0   334    35.3   961.4    0.00 
 116   21:40   0.00   66.9    63   18.6   331    34.5   961.4    0.00 
 116   21:50   0.00   67.3    61   16.6   323    29.8   961.3    0.00 
 116   22:00   0.00   67.9    59   21.2   321    36.8   961.1    0.00 
 116   22:10   0.00   68.5    58   20.6   320    33.2   961.1    0.00 
 116   22:20   0.00   67.8    59   19.4   318    35.2   961.0    0.00 
 116   22:30   0.00   67.2    60   18.7   318    30.2   961.1    0.00 
 116   22:40   0.00   67.0    60   20.8   318    35.4   961.0    0.00 
 116   22:50   0.00   66.8    60   17.6   320    28.2   961.0    0.00 
 116   23:00   0.00   66.6    60   19.3   325    34.6   961.0    0.00 
 116   23:10   0.00   66.3    60   20.3   326    36.2   961.1    0.00 
 116   23:20   0.00   65.6    61   16.8   331    30.6   961.0    0.00 
 116   23:30   0.00   64.6    64   17.7   332    37.8   960.9    0.00 
 116   23:40   0.00   63.7    66   16.9   342    30.7   960.9    0.00 
 116   23:50   0.00   63.7    64   15.7   333    29.6   961.0    0.00 
 117    0:00   0.00   64.3    61   16.3   329    27.0   960.9    0.00 
 117    0:10   0.00   64.2    59   15.8   325    30.7   960.9    0.00 
 117    0:20   0.00   64.7    55   12.4   334    22.2   960.8    0.00 
 117    0:30   0.00   64.4    56   12.2   331    23.5   960.8    0.00 
 117    0:40   0.00   64.1    57   17.1   326    30.5   960.8    0.00 
 117    0:50   0.00   63.8    58   15.9   328    28.6   960.7    0.00 
 117    1:00   0.00   63.8    57   20.3   319    32.2   960.5    0.00 
 117    1:10   0.00   63.9    57   19.6   322    31.6   960.5    0.00 
 117    1:20   0.00   63.8    58   18.0   330    31.2   960.5    0.00 
 117    1:30   0.00   63.4    59   16.6   339    27.9   960.4    0.00 
 117    1:40   0.00   63.0    60   15.3   338    26.5   960.4    0.00 
 117    1:50   0.00   62.7    60   15.5   331    25.8   960.3    0.00 
 117    2:00   0.00   62.1    63   15.1   338    24.9   960.5    0.00 
 117    2:10   0.00   61.1    67   17.0   339    28.5   960.5    0.00 
 117    2:20   0.00   60.3    69   15.2   348    28.0   960.3    0.00 
 117    2:30   0.00   60.5    68   14.6   335    22.9   960.3    0.00 
 117    2:40   0.00   61.2    65   15.0   331    22.1   960.2    0.00 
 117    2:50   0.00   60.5    68   14.6   345    25.1   960.3    0.00 
 117    3:00   0.00   59.9    70   14.1   351    22.2   960.2    0.00 
 117    3:10   0.00   59.4    71   12.8   352    22.4   960.1    0.00 
 117    3:20   0.00   59.8    69   12.9   355    22.1   960.1    0.00 
 117    3:30   0.00   59.0    71   11.8   351    21.2   960.1    0.00 
 117    3:40   0.00   58.5    72   12.0   357    22.8   960.1    0.00 
 117    3:50   0.00   58.7    71   11.1   348    18.2   960.1    0.00 
 117    4:00   0.00   59.1    69   11.1   331    18.9   960.1    0.00 
 117    4:10   0.00   59.3    68   10.5   347    18.9   960.1    0.00 
 117    4:20   0.00   58.7    69   10.2   346    18.7   960.2    0.00 
 117    4:30   0.00   58.5    70   10.8   349    19.6   960.2    0.00 
 117    4:40   0.00   58.6    69   13.7   344    23.8   960.2    0.00 
 117    4:50   0.00   58.1    70   14.3   345    24.1   960.2    0.00 

Return to Valley Peak, Santa Cruz Island Reserve graphs page.


Western Regional Climate Center,wrcc@dri.edu